Flight Track Log - Related Links

Times and Time Zones

All times are in EDT time to prevent confusion due to time zone crossing. See the TCF5898 flight status page for this flight to view local times or setup timezone preferences in your user account.

Time Position Orientation Groundspeed Altitude Reporting Facility
EDT Latitude Longitude Course Direction KTS MPH feet Rate Location/Type
Wed 09:28:29 PM 40.8000 -73.8667 48° Northeast 138 159 2,100  Level New York TRACON
Wed 09:29:29 PM 40.8500 -73.8167 37° Northeast 220 253 4,400 2,950 Climbing New York TRACON
Wed 09:30:29 PM 40.9000 -73.7500 45° Northeast 261 300 8,000 2,895 Climbing New York TRACON
Wed 09:31:00 PM 41.0579 -73.5297 41° Northeast  Level FlightAware Approximate
Wed 09:31:23 PM 40.9500 -73.7000 37° Northeast 283 326 9,900  Level New York TRACON
Wed 09:32:00 PM 41.1296 -73.4406 44° Northeast  Level FlightAware Approximate
Wed 09:32:23 PM 41.0000 -73.6167 51° Northeast 321 369 10,100  Level New York TRACON
Wed 09:33:00 PM 41.2002 -73.3497 48° Northeast  Level FlightAware Approximate
Wed 09:33:23 PM 41.0667 -73.5333 43° Northeast 315 362 10,200  Level New York TRACON
Wed 09:34:23 PM 41.1333 -73.4500 43° Northeast 340 391 13,200 2,813 Climbing New York TRACON
Wed 09:34:59 PM 41.1803 -73.3961 41° Northeast 342 394 14,700 2,474 Climbing Boston Center
Wed 09:36:00 PM 41.2506 -73.3081 43° Northeast 351 404 17,200 2,066 Climbing Boston Center
Wed 09:37:01 PM 41.3267 -73.2083 45° Northeast 373 429 18,900 885 Climbing Boston Center
Wed 09:38:02 PM 41.3897 -73.0711 58° Northeast 419 482 19,000 49 Climbing Boston Center
Wed 09:39:03 PM 41.4214 -72.9231 74° East 420 483 19,000  Level Boston Center
Wed 09:40:04 PM 41.4522 -72.7744 74° East 420 483 19,000  Level Boston Center
Wed 09:41:05 PM 41.4836 -72.6269 74° East 419 482 19,000  Level Boston Center
Wed 09:42:06 PM 41.5169 -72.4664 74° East 419 482 19,000  Level Boston Center
Wed 09:43:07 PM 41.5478 -72.3178 74° East 418 481 19,000 -197 Level Boston Center
Wed 09:44:08 PM 41.5789 -72.1633 75° East 417 480 18,600 -393 Descending Boston Center
Wed 09:45:09 PM 41.6089 -72.0164 75° East 414 476 18,200 -689 Descending Boston Center
Wed 09:46:10 PM 41.6375 -71.8725 75° East 402 463 17,200 -1,328 Descending Boston Center
Wed 09:47:11 PM 41.6653 -71.7314 75° East 398 458 15,500 -1,672 Descending Boston Center
Wed 09:48:12 PM 41.6878 -71.6144 76° East 387 445 13,800 -1,967 Descending Boston Center
Wed 09:49:13 PM 41.7192 -71.4569 75° East 364 419 11,500 -1,328 Descending Boston Center
Wed 09:50:14 PM 41.7619 -71.3572 60° Northeast 309 356 11,100 -197 Descending Boston Center
Wed 09:51:15 PM 41.8258 -71.2814 41° Northeast 298 343 11,100 -632 Level Boston Center
Wed 09:52:46 PM 41.9333 -71.2833 359° North 261 300 9,500 -1,192 Descending KA90
Wed 09:53:46 PM 42.0000 -71.2833 360° North 225 259 8,100 -1,357 Descending KA90
Wed 09:54:41 PM 42.0667 -71.2667 11° North 222 255 6,900 -1,200 Descending KA90
Wed 09:55:41 PM 42.1167 -71.2500 14° North 213 245 5,800 -1,050 Descending KA90
Wed 09:56:41 PM 42.1667 -71.2167 26° Northeast 181 208 4,800 -1,150 Descending KA90
Wed 09:57:41 PM 42.2000 -71.1833 37° Northeast 174 200 3,500 -1,150 Descending KA90
Wed 09:58:41 PM 42.2500 -71.1500 26° Northeast 180 207 2,500 -750 Descending KA90
Wed 09:59:41 PM 42.2833 -71.1000 48° Northeast 176 203 2,000 -600 Descending KA90
Wed 10:00:41 PM 42.3000 -71.0500 66° East 133 153 1,300 -684 Descending KA90
Wed 10:01:35 PM 42.3333 -71.0333 20° North 106 122 700 -667 Descending KA90

Login

Don't have an account? Register now (free) for customized features, flight alerts, and more!